sensor_id;sensor_type;location;lat;lon;timestamp;temperature;humidity
10468;DHT22;5281;48.878;9.394;2023-03-01T00:02:20;0.70;99.90
10468;DHT22;5281;48.878;9.394;2023-03-01T00:04:47;0.80;99.90
10468;DHT22;5281;48.878;9.394;2023-03-01T00:07:14;0.70;99.90
10468;DHT22;5281;48.878;9.394;2023-03-01T00:09:40;0.70;99.90
10468;DHT22;5281;48.878;9.394;2023-03-01T00:12:07;0.70;99.90
10468;DHT22;5281;48.878;9.394;2023-03-01T00:14:35;0.70;99.90
10468;DHT22;5281;48.878;9.394;2023-03-01T00:17:03;0.70;99.90
10468;DHT22;5281;48.878;9.394;2023-03-01T00:19:30;0.70;99.90
10468;DHT22;5281;48.878;9.394;2023-03-01T00:21:57;0.70;99.90
10468;DHT22;5281;48.878;9.394;2023-03-01T00:24:24;0.70;99.90
10468;DHT22;5281;48.878;9.394;2023-03-01T00:26:53;0.70;99.90
10468;DHT22;5281;48.878;9.394;2023-03-01T00:29:20;0.70;99.90
10468;DHT22;5281;48.878;9.394;2023-03-01T00:31:47;0.60;99.90
10468;DHT22;5281;48.878;9.394;2023-03-01T00:34:15;0.70;99.90
10468;DHT22;5281;48.878;9.394;2023-03-01T00:36:42;0.60;99.90
10468;DHT22;5281;48.878;9.394;2023-03-01T00:39:11;0.50;99.90
10468;DHT22;5281;48.878;9.394;2023-03-01T00:41:38;0.60;99.90
10468;DHT22;5281;48.878;9.394;2023-03-01T00:44:05;0.60;99.90
10468;DHT22;5281;48.878;9.394;2023-03-01T00:46:32;0.70;99.90
10468;DHT22;5281;48.878;9.394;2023-03-01T00:48:59;0.70;99.90
10468;DHT22;5281;48.878;9.394;2023-03-01T00:51:29;0.70;99.90
10468;DHT22;5281;48.878;9.394;2023-03-01T00:53:59;0.50;99.90
10468;DHT22;5281;48.878;9.394;2023-03-01T00:56:26;0.50;99.90
10468;DHT22;5281;48.878;9.394;2023-03-01T00:58:53;0.50;99.90
10468;DHT22;5281;48.878;9.394;2023-03-01T01:01:22;0.50;99.90
10468;DHT22;5281;48.878;9.394;2023-03-01T01:03:51;0.50;99.90
10468;DHT22;5281;48.878;9.394;2023-03-01T01:06:19;0.50;99.90
10468;DHT22;5281;48.878;9.394;2023-03-01T01:08:48;0.50;99.90
10468;DHT22;5281;48.878;9.394;2023-03-01T01:11:15;0.50;99.90
10468;DHT22;5281;48.878;9.394;2023-03-01T01:13:45;0.50;99.90
10468;DHT22;5281;48.878;9.394;2023-03-01T01:16:12;0.50;99.90
10468;DHT22;5281;48.878;9.394;2023-03-01T01:18:39;0.50;99.90
10468;DHT22;5281;48.878;9.394;2023-03-01T01:21:08;0.50;99.90
10468;DHT22;5281;48.878;9.394;2023-03-01T01:23:35;0.50;99.90
10468;DHT22;5281;48.878;9.394;2023-03-01T01:26:08;0.50;99.90
10468;DHT22;5281;48.878;9.394;2023-03-01T01:28:36;0.70;99.90
10468;DHT22;5281;48.878;9.394;2023-03-01T01:31:03;0.80;99.90
10468;DHT22;5281;48.878;9.394;2023-03-01T01:33:30;0.90;99.90
10468;DHT22;5281;48.878;9.394;2023-03-01T01:35:56;1.00;99.90
10468;DHT22;5281;48.878;9.394;2023-03-01T01:38:23;1.10;99.90
10468;DHT22;5281;48.878;9.394;2023-03-01T01:40:51;1.20;99.90
10468;DHT22;5281;48.878;9.394;2023-03-01T01:43:22;1.30;99.90
10468;DHT22;5281;48.878;9.394;2023-03-01T01:45:49;1.30;99.90
10468;DHT22;5281;48.878;9.394;2023-03-01T01:48:19;1.40;99.90
10468;DHT22;5281;48.878;9.394;2023-03-01T01:50:50;1.50;99.90
10468;DHT22;5281;48.878;9.394;2023-03-01T01:53:19;1.60;99.90
10468;DHT22;5281;48.878;9.394;2023-03-01T01:55:53;1.80;99.90
10468;DHT22;5281;48.878;9.394;2023-03-01T01:58:25;1.90;99.90
10468;DHT22;5281;48.878;9.394;2023-03-01T02:00:53;1.90;99.90
10468;DHT22;5281;48.878;9.394;2023-03-01T02:03:23;2.00;99.90
10468;DHT22;5281;48.878;9.394;2023-03-01T02:05:58;2.00;99.90
10468;DHT22;5281;48.878;9.394;2023-03-01T02:08:29;2.00;99.90
10468;DHT22;5281;48.878;9.394;2023-03-01T02:10:58;2.00;99.90
10468;DHT22;5281;48.878;9.394;2023-03-01T02:13:27;1.90;99.90
10468;DHT22;5281;48.878;9.394;2023-03-01T02:15:54;1.90;99.90
10468;DHT22;5281;48.878;9.394;2023-03-01T02:18:23;1.90;99.90
10468;DHT22;5281;48.878;9.394;2023-03-01T02:21:08;1.90;99.90
10468;DHT22;5281;48.878;9.394;2023-03-01T02:23:36;1.90;99.90
10468;DHT22;5281;48.878;9.394;2023-03-01T02:26:07;2.00;99.90
10468;DHT22;5281;48.878;9.394;2023-03-01T02:28:38;2.00;99.90
10468;DHT22;5281;48.878;9.394;2023-03-01T02:31:08;2.00;99.90
10468;DHT22;5281;48.878;9.394;2023-03-01T02:33:54;2.00;99.90
10468;DHT22;5281;48.878;9.394;2023-03-01T02:36:24;2.20;99.90
10468;DHT22;5281;48.878;9.394;2023-03-01T02:38:55;2.20;99.90
10468;DHT22;5281;48.878;9.394;2023-03-01T02:41:23;2.20;99.90
10468;DHT22;5281;48.878;9.394;2023-03-01T02:43:52;2.20;99.90
10468;DHT22;5281;48.878;9.394;2023-03-01T02:46:22;2.20;99.90
10468;DHT22;5281;48.878;9.394;2023-03-01T02:48:51;2.10;99.90
10468;DHT22;5281;48.878;9.394;2023-03-01T02:51:25;2.10;99.90
10468;DHT22;5281;48.878;9.394;2023-03-01T02:54:01;2.00;99.90
10468;DHT22;5281;48.878;9.394;2023-03-01T02:56:32;2.00;99.90
10468;DHT22;5281;48.878;9.394;2023-03-01T02:59:02;1.90;99.90
10468;DHT22;5281;48.878;9.394;2023-03-01T03:01:29;1.90;99.90
10468;DHT22;5281;48.878;9.394;2023-03-01T03:04:02;1.80;99.90
10468;DHT22;5281;48.878;9.394;2023-03-01T03:06:29;1.90;99.90
10468;DHT22;5281;48.878;9.394;2023-03-01T03:08:56;1.90;99.90
10468;DHT22;5281;48.878;9.394;2023-03-01T03:11:23;1.90;99.90
10468;DHT22;5281;48.878;9.394;2023-03-01T03:13:50;1.90;99.90
10468;DHT22;5281;48.878;9.394;2023-03-01T03:16:18;1.90;99.90
10468;DHT22;5281;48.878;9.394;2023-03-01T03:18:45;1.80;99.90
10468;DHT22;5281;48.878;9.394;2023-03-01T03:21:13;1.90;99.90
10468;DHT22;5281;48.878;9.394;2023-03-01T03:23:39;1.80;99.90
10468;DHT22;5281;48.878;9.394;2023-03-01T03:26:06;1.70;99.90
10468;DHT22;5281;48.878;9.394;2023-03-01T03:28:34;1.80;99.90
10468;DHT22;5281;48.878;9.394;2023-03-01T03:31:01;1.80;99.90
10468;DHT22;5281;48.878;9.394;2023-03-01T03:33:30;1.80;99.90
10468;DHT22;5281;48.878;9.394;2023-03-01T03:35:57;1.80;99.90
10468;DHT22;5281;48.878;9.394;2023-03-01T03:38:24;1.80;99.90
10468;DHT22;5281;48.878;9.394;2023-03-01T03:41:00;1.80;99.90
10468;DHT22;5281;48.878;9.394;2023-03-01T03:43:28;1.80;99.90
10468;DHT22;5281;48.878;9.394;2023-03-01T03:45:55;1.80;99.90
10468;DHT22;5281;48.878;9.394;2023-03-01T03:48:23;1.90;99.90
10468;DHT22;5281;48.878;9.394;2023-03-01T03:50:53;1.90;99.90
10468;DHT22;5281;48.878;9.394;2023-03-01T03:53:20;2.00;99.90
10468;DHT22;5281;48.878;9.394;2023-03-01T03:55:48;2.00;99.90
10468;DHT22;5281;48.878;9.394;2023-03-01T03:58:18;2.00;99.90
10468;DHT22;5281;48.878;9.394;2023-03-01T04:00:46;2.00;99.90
10468;DHT22;5281;48.878;9.394;2023-03-01T04:03:15;2.00;99.90
10468;DHT22;5281;48.878;9.394;2023-03-01T04:05:42;2.00;99.90
10468;DHT22;5281;48.878;9.394;2023-03-01T04:08:10;2.10;99.90
10468;DHT22;5281;48.878;9.394;2023-03-01T04:10:39;2.20;99.90
10468;DHT22;5281;48.878;9.394;2023-03-01T04:13:08;2.20;99.90
10468;DHT22;5281;48.878;9.394;2023-03-01T04:15:36;2.20;99.90
10468;DHT22;5281;48.878;9.394;2023-03-01T04:18:02;2.30;99.90
10468;DHT22;5281;48.878;9.394;2023-03-01T04:20:31;2.30;99.90
10468;DHT22;5281;48.878;9.394;2023-03-01T04:23:01;2.40;99.90
10468;DHT22;5281;48.878;9.394;2023-03-01T04:25:37;2.40;99.90
10468;DHT22;5281;48.878;9.394;2023-03-01T04:28:05;2.40;99.90
10468;DHT22;5281;48.878;9.394;2023-03-01T04:30:32;2.40;99.90
10468;DHT22;5281;48.878;9.394;2023-03-01T04:33:01;2.50;99.90
10468;DHT22;5281;48.878;9.394;2023-03-01T04:35:28;2.50;99.90
10468;DHT22;5281;48.878;9.394;2023-03-01T04:37:55;2.50;99.90
10468;DHT22;5281;48.878;9.394;2023-03-01T04:40:22;2.40;99.90
10468;DHT22;5281;48.878;9.394;2023-03-01T04:42:50;2.40;99.90
10468;DHT22;5281;48.878;9.394;2023-03-01T04:45:17;2.30;99.90
10468;DHT22;5281;48.878;9.394;2023-03-01T04:47:45;2.30;99.90
10468;DHT22;5281;48.878;9.394;2023-03-01T04:50:15;2.30;99.90
10468;DHT22;5281;48.878;9.394;2023-03-01T04:52:42;2.30;99.90
10468;DHT22;5281;48.878;9.394;2023-03-01T04:55:10;2.30;99.90
10468;DHT22;5281;48.878;9.394;2023-03-01T04:57:37;2.30;99.90
10468;DHT22;5281;48.878;9.394;2023-03-01T05:00:07;2.20;99.90
10468;DHT22;5281;48.878;9.394;2023-03-01T05:02:49;2.20;99.90
10468;DHT22;5281;48.878;9.394;2023-03-01T05:05:19;2.20;99.90
10468;DHT22;5281;48.878;9.394;2023-03-01T05:07:47;2.20;99.90
10468;DHT22;5281;48.878;9.394;2023-03-01T05:10:13;2.20;99.90
10468;DHT22;5281;48.878;9.394;2023-03-01T05:12:40;2.20;99.90
10468;DHT22;5281;48.878;9.394;2023-03-01T05:15:09;2.20;99.90
10468;DHT22;5281;48.878;9.394;2023-03-01T05:17:36;2.20;99.90
10468;DHT22;5281;48.878;9.394;2023-03-01T05:20:03;2.20;99.90
10468;DHT22;5281;48.878;9.394;2023-03-01T05:22:33;2.20;99.90
10468;DHT22;5281;48.878;9.394;2023-03-01T05:25:00;2.10;99.90
10468;DHT22;5281;48.878;9.394;2023-03-01T05:27:27;2.20;99.90
10468;DHT22;5281;48.878;9.394;2023-03-01T05:29:55;2.20;99.90
10468;DHT22;5281;48.878;9.394;2023-03-01T05:32:23;2.20;99.90
10468;DHT22;5281;48.878;9.394;2023-03-01T05:34:49;2.30;99.90
10468;DHT22;5281;48.878;9.394;2023-03-01T05:37:17;2.20;99.90
10468;DHT22;5281;48.878;9.394;2023-03-01T05:39:45;2.20;99.90
10468;DHT22;5281;48.878;9.394;2023-03-01T05:42:11;2.10;99.90
10468;DHT22;5281;48.878;9.394;2023-03-01T05:44:38;2.10;99.90
10468;DHT22;5281;48.878;9.394;2023-03-01T05:47:05;2.10;99.90
10468;DHT22;5281;48.878;9.394;2023-03-01T05:49:33;2.20;99.90
10468;DHT22;5281;48.878;9.394;2023-03-01T05:52:00;2.20;99.90
10468;DHT22;5281;48.878;9.394;2023-03-01T05:54:27;2.30;99.90
10468;DHT22;5281;48.878;9.394;2023-03-01T05:56:53;2.30;99.90
10468;DHT22;5281;48.878;9.394;2023-03-01T05:59:21;2.30;99.90
10468;DHT22;5281;48.878;9.394;2023-03-01T06:01:48;2.40;99.90
10468;DHT22;5281;48.878;9.394;2023-03-01T06:04:15;2.40;99.90
10468;DHT22;5281;48.878;9.394;2023-03-01T06:06:43;2.40;99.90
10468;DHT22;5281;48.878;9.394;2023-03-01T06:09:10;2.30;99.90
10468;DHT22;5281;48.878;9.394;2023-03-01T06:11:37;2.30;99.90
10468;DHT22;5281;48.878;9.394;2023-03-01T06:14:04;2.30;99.90
10468;DHT22;5281;48.878;9.394;2023-03-01T06:16:31;2.20;99.90
10468;DHT22;5281;48.878;9.394;2023-03-01T06:18:58;2.10;99.90
10468;DHT22;5281;48.878;9.394;2023-03-01T06:21:25;2.00;99.90
10468;DHT22;5281;48.878;9.394;2023-03-01T06:23:53;1.90;99.90
10468;DHT22;5281;48.878;9.394;2023-03-01T06:26:20;1.80;99.90
10468;DHT22;5281;48.878;9.394;2023-03-01T06:28:46;1.60;99.90
10468;DHT22;5281;48.878;9.394;2023-03-01T06:31:13;1.50;99.90
10468;DHT22;5281;48.878;9.394;2023-03-01T06:33:40;1.50;99.90
10468;DHT22;5281;48.878;9.394;2023-03-01T06:36:07;1.50;99.90
10468;DHT22;5281;48.878;9.394;2023-03-01T06:38:35;1.60;99.90
10468;DHT22;5281;48.878;9.394;2023-03-01T06:41:03;1.70;99.90
10468;DHT22;5281;48.878;9.394;2023-03-01T06:43:30;1.60;99.90
10468;DHT22;5281;48.878;9.394;2023-03-01T06:45:57;1.60;99.90
10468;DHT22;5281;48.878;9.394;2023-03-01T06:48:24;1.60;99.90
10468;DHT22;5281;48.878;9.394;2023-03-01T06:50:50;1.60;99.90
10468;DHT22;5281;48.878;9.394;2023-03-01T06:53:17;1.70;99.90
10468;DHT22;5281;48.878;9.394;2023-03-01T06:55:44;2.00;99.90
10468;DHT22;5281;48.878;9.394;2023-03-01T06:58:12;2.50;99.90
10468;DHT22;5281;48.878;9.394;2023-03-01T07:00:39;3.10;99.90
10468;DHT22;5281;48.878;9.394;2023-03-01T07:03:06;3.70;99.90
10468;DHT22;5281;48.878;9.394;2023-03-01T07:05:33;4.30;99.90
10468;DHT22;5281;48.878;9.394;2023-03-01T07:08:00;4.90;99.90
10468;DHT22;5281;48.878;9.394;2023-03-01T07:10:27;5.20;99.90
10468;DHT22;5281;48.878;9.394;2023-03-01T07:12:55;5.40;99.90
10468;DHT22;5281;48.878;9.394;2023-03-01T07:15:23;5.40;99.90
10468;DHT22;5281;48.878;9.394;2023-03-01T07:17:50;5.50;99.90
10468;DHT22;5281;48.878;9.394;2023-03-01T07:20:18;5.70;99.90
10468;DHT22;5281;48.878;9.394;2023-03-01T07:22:44;6.00;99.90
10468;DHT22;5281;48.878;9.394;2023-03-01T07:25:11;6.50;99.90
10468;DHT22;5281;48.878;9.394;2023-03-01T07:27:38;6.90;99.90
10468;DHT22;5281;48.878;9.394;2023-03-01T07:30:06;7.40;99.90
10468;DHT22;5281;48.878;9.394;2023-03-01T07:32:35;7.90;99.90
10468;DHT22;5281;48.878;9.394;2023-03-01T07:35:02;8.50;99.90
10468;DHT22;5281;48.878;9.394;2023-03-01T07:37:28;9.10;99.90
10468;DHT22;5281;48.878;9.394;2023-03-01T07:39:55;9.40;99.40
10468;DHT22;5281;48.878;9.394;2023-03-01T07:42:23;9.30;98.20
10468;DHT22;5281;48.878;9.394;2023-03-01T07:44:49;8.70;98.30
10468;DHT22;5281;48.878;9.394;2023-03-01T07:47:16;7.70;99.00
10468;DHT22;5281;48.878;9.394;2023-03-01T07:49:44;6.70;99.90
10468;DHT22;5281;48.878;9.394;2023-03-01T07:52:11;5.80;99.90
10468;DHT22;5281;48.878;9.394;2023-03-01T07:54:38;5.10;99.90
10468;DHT22;5281;48.878;9.394;2023-03-01T07:57:05;4.40;99.90
10468;DHT22;5281;48.878;9.394;2023-03-01T07:59:32;3.90;99.90
10468;DHT22;5281;48.878;9.394;2023-03-01T08:01:59;3.50;99.90
10468;DHT22;5281;48.878;9.394;2023-03-01T08:04:26;3.30;99.90
10468;DHT22;5281;48.878;9.394;2023-03-01T08:06:54;3.30;99.90
10468;DHT22;5281;48.878;9.394;2023-03-01T08:09:21;3.20;99.90
10468;DHT22;5281;48.878;9.394;2023-03-01T08:11:48;3.20;99.90
10468;DHT22;5281;48.878;9.394;2023-03-01T08:14:15;3.10;99.90
10468;DHT22;5281;48.878;9.394;2023-03-01T08:16:41;3.10;99.90
10468;DHT22;5281;48.878;9.394;2023-03-01T08:19:10;3.00;99.90
10468;DHT22;5281;48.878;9.394;2023-03-01T08:21:37;3.10;99.90
10468;DHT22;5281;48.878;9.394;2023-03-01T08:24:06;3.10;99.90
10468;DHT22;5281;48.878;9.394;2023-03-01T08:26:35;3.10;99.90
10468;DHT22;5281;48.878;9.394;2023-03-01T08:29:03;3.00;99.90
10468;DHT22;5281;48.878;9.394;2023-03-01T08:31:32;3.10;99.90
10468;DHT22;5281;48.878;9.394;2023-03-01T08:34:02;3.00;99.90
10468;DHT22;5281;48.878;9.394;2023-03-01T08:36:31;3.10;99.90
10468;DHT22;5281;48.878;9.394;2023-03-01T08:38:58;3.10;99.90
10468;DHT22;5281;48.878;9.394;2023-03-01T08:41:27;3.30;99.90
10468;DHT22;5281;48.878;9.394;2023-03-01T08:43:54;3.40;99.90
10468;DHT22;5281;48.878;9.394;2023-03-01T08:46:24;3.50;99.90
10468;DHT22;5281;48.878;9.394;2023-03-01T08:48:51;3.70;99.90
10468;DHT22;5281;48.878;9.394;2023-03-01T08:51:19;3.80;99.90
10468;DHT22;5281;48.878;9.394;2023-03-01T08:53:47;3.80;99.90
10468;DHT22;5281;48.878;9.394;2023-03-01T08:56:14;3.70;99.90
10468;DHT22;5281;48.878;9.394;2023-03-01T08:58:45;3.70;99.90
10468;DHT22;5281;48.878;9.394;2023-03-01T09:01:13;3.80;99.90
10468;DHT22;5281;48.878;9.394;2023-03-01T09:03:41;3.90;99.90
10468;DHT22;5281;48.878;9.394;2023-03-01T09:06:08;4.00;99.90
10468;DHT22;5281;48.878;9.394;2023-03-01T09:08:35;4.30;99.90
10468;DHT22;5281;48.878;9.394;2023-03-01T09:11:02;4.40;99.90
10468;DHT22;5281;48.878;9.394;2023-03-01T09:13:29;4.40;99.90
10468;DHT22;5281;48.878;9.394;2023-03-01T09:16:00;4.60;99.90
10468;DHT22;5281;48.878;9.394;2023-03-01T09:18:26;4.70;99.90
10468;DHT22;5281;48.878;9.394;2023-03-01T09:21:00;4.80;99.90
10468;DHT22;5281;48.878;9.394;2023-03-01T09:23:27;4.90;99.90
10468;DHT22;5281;48.878;9.394;2023-03-01T09:25:54;5.00;99.90
10468;DHT22;5281;48.878;9.394;2023-03-01T09:28:20;5.10;99.90
10468;DHT22;5281;48.878;9.394;2023-03-01T09:30:48;5.20;99.90
10468;DHT22;5281;48.878;9.394;2023-03-01T09:33:16;5.30;99.90
10468;DHT22;5281;48.878;9.394;2023-03-01T09:35:43;5.30;99.90
10468;DHT22;5281;48.878;9.394;2023-03-01T09:38:12;5.30;99.90
10468;DHT22;5281;48.878;9.394;2023-03-01T09:40:43;5.30;99.90
10468;DHT22;5281;48.878;9.394;2023-03-01T09:43:15;5.30;99.90
10468;DHT22;5281;48.878;9.394;2023-03-01T09:45:46;5.40;99.90
10468;DHT22;5281;48.878;9.394;2023-03-01T09:48:17;5.50;99.90
10468;DHT22;5281;48.878;9.394;2023-03-01T09:50:47;5.60;99.90
10468;DHT22;5281;48.878;9.394;2023-03-01T09:53:16;5.60;99.90
10468;DHT22;5281;48.878;9.394;2023-03-01T09:55:45;5.70;99.90
10468;DHT22;5281;48.878;9.394;2023-03-01T09:58:31;5.70;99.90
10468;DHT22;5281;48.878;9.394;2023-03-01T10:01:09;5.80;99.90
10468;DHT22;5281;48.878;9.394;2023-03-01T10:03:43;5.80;99.90
10468;DHT22;5281;48.878;9.394;2023-03-01T10:06:14;5.90;99.90
10468;DHT22;5281;48.878;9.394;2023-03-01T10:08:43;5.90;99.90
10468;DHT22;5281;48.878;9.394;2023-03-01T10:11:20;6.00;99.90
10468;DHT22;5281;48.878;9.394;2023-03-01T10:13:54;6.10;99.90
10468;DHT22;5281;48.878;9.394;2023-03-01T10:16:24;6.10;99.90
10468;DHT22;5281;48.878;9.394;2023-03-01T10:18:58;6.10;99.90
10468;DHT22;5281;48.878;9.394;2023-03-01T10:21:27;6.10;99.90
10468;DHT22;5281;48.878;9.394;2023-03-01T10:24:10;6.30;99.90
10468;DHT22;5281;48.878;9.394;2023-03-01T10:26:48;6.50;99.90
10468;DHT22;5281;48.878;9.394;2023-03-01T10:29:16;6.60;99.90
10468;DHT22;5281;48.878;9.394;2023-03-01T10:31:46;6.70;99.90
10468;DHT22;5281;48.878;9.394;2023-03-01T10:34:17;6.80;99.90
10468;DHT22;5281;48.878;9.394;2023-03-01T10:36:47;6.80;99.90
10468;DHT22;5281;48.878;9.394;2023-03-01T10:39:16;7.00;99.90
10468;DHT22;5281;48.878;9.394;2023-03-01T10:41:56;7.00;99.90
10468;DHT22;5281;48.878;9.394;2023-03-01T10:44:42;7.10;99.90
10468;DHT22;5281;48.878;9.394;2023-03-01T10:47:15;7.20;99.90
10468;DHT22;5281;48.878;9.394;2023-03-01T10:49:58;7.30;99.90
10468;DHT22;5281;48.878;9.394;2023-03-01T10:52:28;7.30;99.90
10468;DHT22;5281;48.878;9.394;2023-03-01T10:54:57;7.40;99.90
10468;DHT22;5281;48.878;9.394;2023-03-01T10:57:36;7.50;99.90
10468;DHT22;5281;48.878;9.394;2023-03-01T11:00:22;7.60;99.90
10468;DHT22;5281;48.878;9.394;2023-03-01T11:03:02;7.60;99.90
10468;DHT22;5281;48.878;9.394;2023-03-01T11:05:30;7.60;99.90
10468;DHT22;5281;48.878;9.394;2023-03-01T11:08:00;7.60;99.90
10468;DHT22;5281;48.878;9.394;2023-03-01T11:10:28;7.80;99.90
10468;DHT22;5281;48.878;9.394;2023-03-01T11:13:07;8.00;99.90
10468;DHT22;5281;48.878;9.394;2023-03-01T11:15:35;8.10;99.90
10468;DHT22;5281;48.878;9.394;2023-03-01T11:18:02;8.20;99.90
10468;DHT22;5281;48.878;9.394;2023-03-01T11:20:33;8.20;99.40
10468;DHT22;5281;48.878;9.394;2023-03-01T11:23:03;8.20;99.50
10468;DHT22;5281;48.878;9.394;2023-03-01T11:25:35;8.20;99.70
10468;DHT22;5281;48.878;9.394;2023-03-01T11:28:05;8.40;99.90
10468;DHT22;5281;48.878;9.394;2023-03-01T11:30:35;8.60;99.40
10468;DHT22;5281;48.878;9.394;2023-03-01T11:33:11;8.70;98.80
10468;DHT22;5281;48.878;9.394;2023-03-01T11:35:46;8.70;98.60
10468;DHT22;5281;48.878;9.394;2023-03-01T11:38:19;8.70;98.80
10468;DHT22;5281;48.878;9.394;2023-03-01T11:40:52;8.60;98.90
10468;DHT22;5281;48.878;9.394;2023-03-01T11:43:23;8.70;98.90
10468;DHT22;5281;48.878;9.394;2023-03-01T11:46:18;8.70;98.50
10468;DHT22;5281;48.878;9.394;2023-03-01T11:48:58;8.80;98.30
10468;DHT22;5281;48.878;9.394;2023-03-01T11:51:39;8.90;98.50
10468;DHT22;5281;48.878;9.394;2023-03-01T11:54:27;8.80;98.10
10468;DHT22;5281;48.878;9.394;2023-03-01T11:56:59;8.80;98.60
10468;DHT22;5281;48.878;9.394;2023-03-01T11:59:51;8.80;98.70
10468;DHT22;5281;48.878;9.394;2023-03-01T12:08:35;9.10;98.20
10468;DHT22;5281;48.878;9.394;2023-03-01T12:11:15;9.20;98.10
10468;DHT22;5281;48.878;9.394;2023-03-01T12:14:13;9.20;97.80
10468;DHT22;5281;48.878;9.394;2023-03-01T12:17:06;9.30;98.00
10468;DHT22;5281;48.878;9.394;2023-03-01T12:19:49;9.40;97.90
10468;DHT22;5281;48.878;9.394;2023-03-01T12:22:29;9.60;97.40
10468;DHT22;5281;48.878;9.394;2023-03-01T12:25:17;9.70;97.00
10468;DHT22;5281;48.878;9.394;2023-03-01T12:28:00;9.90;96.80
10468;DHT22;5281;48.878;9.394;2023-03-01T12:30:39;9.90;97.10
10468;DHT22;5281;48.878;9.394;2023-03-01T12:33:22;10.00;96.40
10468;DHT22;5281;48.878;9.394;2023-03-01T12:36:23;10.10;95.90
10468;DHT22;5281;48.878;9.394;2023-03-01T12:39:03;10.00;95.70
10468;DHT22;5281;48.878;9.394;2023-03-01T12:41:46;10.00;96.00
10468;DHT22;5281;48.878;9.394;2023-03-01T12:44:39;10.10;95.70
10468;DHT22;5281;48.878;9.394;2023-03-01T12:47:20;10.10;95.80
10468;DHT22;5281;48.878;9.394;2023-03-01T12:49:52;10.00;96.20
10468;DHT22;5281;48.878;9.394;2023-03-01T12:52:24;9.90;96.30
10468;DHT22;5281;48.878;9.394;2023-03-01T12:54:57;9.90;96.60
10468;DHT22;5281;48.878;9.394;2023-03-01T12:57:30;9.90;96.80
10468;DHT22;5281;48.878;9.394;2023-03-01T13:00:10;10.00;95.70
10468;DHT22;5281;48.878;9.394;2023-03-01T13:02:49;10.00;95.70
10468;DHT22;5281;48.878;9.394;2023-03-01T13:05:36;9.90;96.20
10468;DHT22;5281;48.878;9.394;2023-03-01T13:08:12;9.80;96.50
10468;DHT22;5281;48.878;9.394;2023-03-01T13:10:46;9.80;96.40
10468;DHT22;5281;48.878;9.394;2023-03-01T13:13:19;9.60;96.50
10468;DHT22;5281;48.878;9.394;2023-03-01T13:15:46;9.60;96.50
10468;DHT22;5281;48.878;9.394;2023-03-01T13:18:29;9.50;96.80
10468;DHT22;5281;48.878;9.394;2023-03-01T13:20:59;9.60;96.60
10468;DHT22;5281;48.878;9.394;2023-03-01T13:23:28;9.50;96.90
10468;DHT22;5281;48.878;9.394;2023-03-01T13:26:13;9.50;97.30
10468;DHT22;5281;48.878;9.394;2023-03-01T13:31:57;9.90;96.80
10468;DHT22;5281;48.878;9.394;2023-03-01T13:34:51;9.90;96.80
10468;DHT22;5281;48.878;9.394;2023-03-01T13:37:21;9.80;97.10
10468;DHT22;5281;48.878;9.394;2023-03-01T13:39:47;9.70;96.90
10468;DHT22;5281;48.878;9.394;2023-03-01T13:45:19;9.70;97.60
10468;DHT22;5281;48.878;9.394;2023-03-01T13:47:53;9.70;97.40
10468;DHT22;5281;48.878;9.394;2023-03-01T13:50:25;9.60;97.40
10468;DHT22;5281;48.878;9.394;2023-03-01T13:52:56;9.50;97.90
10468;DHT22;5281;48.878;9.394;2023-03-01T13:55:30;9.50;98.00
10468;DHT22;5281;48.878;9.394;2023-03-01T13:58:01;9.60;97.80
10468;DHT22;5281;48.878;9.394;2023-03-01T14:00:33;9.60;97.60
10468;DHT22;5281;48.878;9.394;2023-03-01T14:03:11;9.60;97.10
10468;DHT22;5281;48.878;9.394;2023-03-01T14:05:38;9.80;97.20
10468;DHT22;5281;48.878;9.394;2023-03-01T14:08:19;9.80;97.40
10468;DHT22;5281;48.878;9.394;2023-03-01T14:14:09;9.80;96.90
10468;DHT22;5281;48.878;9.394;2023-03-01T14:16:44;9.80;97.30
10468;DHT22;5281;48.878;9.394;2023-03-01T14:19:17;9.80;97.40
10468;DHT22;5281;48.878;9.394;2023-03-01T14:21:46;9.80;97.50
10468;DHT22;5281;48.878;9.394;2023-03-01T14:24:21;9.70;97.40
10468;DHT22;5281;48.878;9.394;2023-03-01T14:26:49;9.50;97.90
10468;DHT22;5281;48.878;9.394;2023-03-01T14:29:26;9.50;98.00
10468;DHT22;5281;48.878;9.394;2023-03-01T14:31:54;9.60;98.10
10468;DHT22;5281;48.878;9.394;2023-03-01T14:34:22;9.60;97.80
10468;DHT22;5281;48.878;9.394;2023-03-01T14:36:49;9.60;97.90
10468;DHT22;5281;48.878;9.394;2023-03-01T14:39:17;9.50;97.80
10468;DHT22;5281;48.878;9.394;2023-03-01T14:41:44;9.60;98.10
10468;DHT22;5281;48.878;9.394;2023-03-01T14:44:15;9.50;98.20
10468;DHT22;5281;48.878;9.394;2023-03-01T14:46:44;9.60;98.00
10468;DHT22;5281;48.878;9.394;2023-03-01T14:49:15;9.50;97.60
10468;DHT22;5281;48.878;9.394;2023-03-01T14:51:47;9.40;97.50
10468;DHT22;5281;48.878;9.394;2023-03-01T14:54:21;9.40;97.50
10468;DHT22;5281;48.878;9.394;2023-03-01T14:56:48;9.30;97.60
10468;DHT22;5281;48.878;9.394;2023-03-01T14:59:14;9.30;97.70
10468;DHT22;5281;48.878;9.394;2023-03-01T15:01:42;9.30;97.60
10468;DHT22;5281;48.878;9.394;2023-03-01T15:04:13;9.30;97.60
10468;DHT22;5281;48.878;9.394;2023-03-01T15:06:41;9.30;97.60
10468;DHT22;5281;48.878;9.394;2023-03-01T15:09:13;9.30;97.50
10468;DHT22;5281;48.878;9.394;2023-03-01T15:11:40;9.30;97.50
10468;DHT22;5281;48.878;9.394;2023-03-01T15:14:27;9.30;97.70
10468;DHT22;5281;48.878;9.394;2023-03-01T15:16:55;9.20;97.30
10468;DHT22;5281;48.878;9.394;2023-03-01T15:19:24;9.20;97.40
10468;DHT22;5281;48.878;9.394;2023-03-01T15:21:54;9.20;97.40
10468;DHT22;5281;48.878;9.394;2023-03-01T15:24:24;9.10;97.50
10468;DHT22;5281;48.878;9.394;2023-03-01T15:26:55;9.00;97.60
10468;DHT22;5281;48.878;9.394;2023-03-01T15:29:24;9.00;97.30
10468;DHT22;5281;48.878;9.394;2023-03-01T15:31:57;8.90;97.50
10468;DHT22;5281;48.878;9.394;2023-03-01T15:34:27;8.90;97.70
10468;DHT22;5281;48.878;9.394;2023-03-01T15:36:55;8.90;97.50
10468;DHT22;5281;48.878;9.394;2023-03-01T15:39:39;8.80;97.20
10468;DHT22;5281;48.878;9.394;2023-03-01T15:42:10;8.80;97.20
10468;DHT22;5281;48.878;9.394;2023-03-01T15:44:38;8.70;97.10
10468;DHT22;5281;48.878;9.394;2023-03-01T15:47:21;8.70;97.40
10468;DHT22;5281;48.878;9.394;2023-03-01T15:49:51;8.70;97.30
10468;DHT22;5281;48.878;9.394;2023-03-01T15:52:22;8.70;97.40
10468;DHT22;5281;48.878;9.394;2023-03-01T15:54:54;8.70;97.30
10468;DHT22;5281;48.878;9.394;2023-03-01T15:57:21;8.70;97.30
10468;DHT22;5281;48.878;9.394;2023-03-01T15:59:48;8.60;97.50
10468;DHT22;5281;48.878;9.394;2023-03-01T16:02:16;8.60;97.50
10468;DHT22;5281;48.878;9.394;2023-03-01T16:04:42;8.60;97.50
10468;DHT22;5281;48.878;9.394;2023-03-01T16:07:10;8.50;97.50
10468;DHT22;5281;48.878;9.394;2023-03-01T16:09:37;8.50;97.90
10468;DHT22;5281;48.878;9.394;2023-03-01T16:12:05;8.40;97.50
10468;DHT22;5281;48.878;9.394;2023-03-01T16:14:32;8.40;97.60
10468;DHT22;5281;48.878;9.394;2023-03-01T16:16:59;8.30;97.80
10468;DHT22;5281;48.878;9.394;2023-03-01T16:19:26;8.30;98.00
10468;DHT22;5281;48.878;9.394;2023-03-01T16:21:53;8.20;97.80
10468;DHT22;5281;48.878;9.394;2023-03-01T16:24:21;8.30;97.80
10468;DHT22;5281;48.878;9.394;2023-03-01T16:26:47;8.30;98.00
10468;DHT22;5281;48.878;9.394;2023-03-01T16:29:14;8.20;98.20
10468;DHT22;5281;48.878;9.394;2023-03-01T16:31:41;8.10;98.50
10468;DHT22;5281;48.878;9.394;2023-03-01T16:34:08;8.10;98.60
10468;DHT22;5281;48.878;9.394;2023-03-01T16:36:47;8.00;98.70
10468;DHT22;5281;48.878;9.394;2023-03-01T16:39:26;8.00;98.60